41.6°F
Current conditions from King Hill
Updated every 5 minutes
 
  Tuesday November 25, 2014

Station Historical Data
Daily Summary for March 25, 2012 Units:  Both    English   Metric
« Previous Day
Next Day »
Daily Weekly Monthly Yearly Custom
  High: Low: Average:
Temperature: 45.1 °F /  7.3 °C 40.0 °F /  4.4 °C 43 °F /  6.1 °C
Dew Point: 40.2 °F /  4.6 °C 31.2 °F /  -0.4 °C 37.6 °F /  3.1 °C
Humidity: 91% 64% 81%
Wind Speed: 11.0mph /  17.7km/h - 5.2mph /  8.4km/h
Wind Gust: 22.0mph /  35.4km/h - -
Wind- - SSW
Pressure: 29.95 in /  1014.1 hPa 29.68 in /  1005 hPa -
Precipitation: 0.03 in /  0.8 mm    
Historical Graphs
 
 
Tabular Data for March 25, 2012
Time Temperature Dew Point Pressure Wind Wind Speed Wind Gust Humidity Daily Rainfall
00:05 40.1 °F /  4.5 °C 33.8 °F /  1 °C 29.95in /  1014.1hPa Calm     78% 0.00in /  0mm
00:10 40.2 °F /  4.6 °C 33.9 °F /  1.1 °C 29.95in /  1014.1hPa Calm     78% 0.00in /  0mm
00:15 40.2 °F /  4.6 °C 33.9 °F /  1.1 °C 29.95in /  1014.1hPa Calm     78% 0.00in /  0mm
00:19 40.2 °F /  4.6 °C 33.9 °F /  1.1 °C 29.95in /  1014.1hPa Calm     78% 0.00in /  0mm
00:24 40.2 °F /  4.6 °C 33.9 °F /  1.1 °C 29.95in /  1014.1hPa Calm     78% 0.00in /  0mm
00:30 40.2 °F /  4.6 °C 33.9 °F /  1.1 °C 29.95in /  1014.1hPa Calm     78% 0.00in /  0mm
00:34 40.3 °F /  4.6 °C 34.0 °F /  1.1 °C 29.95in /  1014.1hPa Calm     78% 0.00in /  0mm
00:40 40.3 °F /  4.6 °C 34.0 °F /  1.1 °C 29.95in /  1014.1hPa Calm   3.0mph /  4.8km/h 78% 0.00in /  0mm
00:45 40.3 °F /  4.6 °C 34.0 °F /  1.1 °C 29.95in /  1014.1hPa Calm   3.0mph /  4.8km/h 78% 0.00in /  0mm
00:49 40.1 °F /  4.5 °C 33.5 °F /  0.8 °C 29.95in /  1014.1hPa SSW 2.0mph /  3.2km/h 4.0mph /  6.4km/h 77% 0.00in /  0mm
00:55 40.0 °F /  4.4 °C 33.4 °F /  0.8 °C 29.94in /  1013.8hPa SSW 1.0mph /  1.6km/h 4.0mph /  6.4km/h 77% 0.00in /  0mm
00:59 40.0 °F /  4.4 °C 33.4 °F /  0.8 °C 29.94in /  1013.8hPa SSW 1.0mph /  1.6km/h 4.0mph /  6.4km/h 77% 0.00in /  0mm
01:05 40.1 °F /  4.5 °C 33.5 °F /  0.8 °C 29.94in /  1013.8hPa Calm   4.0mph /  6.4km/h 77% 0.00in /  0mm
01:09 40.1 °F /  4.5 °C 33.5 °F /  0.8 °C 29.94in /  1013.8hPa SSW 2.0mph /  3.2km/h 7.0mph /  11.3km/h 77% 0.00in /  0mm
01:15 40.2 °F /  4.6 °C 33.2 °F /  0.7 °C 29.94in /  1013.8hPa SSW 2.0mph /  3.2km/h 7.0mph /  11.3km/h 76% 0.00in /  0mm
01:19 40.3 °F /  4.6 °C 33.3 °F /  0.7 °C 29.94in /  1013.8hPa Calm   6.0mph /  9.7km/h 76% 0.00in /  0mm
01:25 40.4 °F /  4.7 °C 33.4 °F /  0.8 °C 29.94in /  1013.8hPa SSW 1.0mph /  1.6km/h 5.0mph /  8km/h 76% 0.00in /  0mm
01:30 40.5 °F /  4.7 °C 33.2 °F /  0.7 °C 29.94in /  1013.8hPa SSW 2.0mph /  3.2km/h 5.0mph /  8km/h 75% 0.00in /  0mm
01:35 40.6 °F /  4.8 °C 33.3 °F /  0.7 °C 29.94in /  1013.8hPa SSW 1.0mph /  1.6km/h 4.0mph /  6.4km/h 75% 0.00in /  0mm
01:39 40.8 °F /  4.9 °C 33.2 °F /  0.7 °C 29.94in /  1013.8hPa Calm   3.0mph /  4.8km/h 74% 0.00in /  0mm
01:45 41.0 °F /  5 °C 34.7 °F /  1.5 °C 29.94in /  1013.8hPa SSW 2.0mph /  3.2km/h 5.0mph /  8km/h 78% 0.00in /  0mm
01:50 41.1 °F /  5.1 °C 33.5 °F /  0.8 °C 29.93in /  1013.4hPa SSW 2.0mph /  3.2km/h 5.0mph /  8km/h 74% 0.00in /  0mm
01:55 41.2 °F /  5.1 °C 33.2 °F /  0.7 °C 29.93in /  1013.4hPa SSW 1.0mph /  1.6km/h 6.0mph /  9.7km/h 73% 0.00in /  0mm
01:59 41.3 °F /  5.2 °C 32.6 °F /  0.3 °C 29.93in /  1013.4hPa SSW 3.0mph /  4.8km/h 6.0mph /  9.7km/h 71% 0.00in /  0mm
02:05 41.4 °F /  5.2 °C 32.7 °F /  0.4 °C 29.93in /  1013.4hPa SSW 1.0mph /  1.6km/h 6.0mph /  9.7km/h 71% 0.00in /  0mm
02:10 41.5 °F /  5.3 °C 32.8 °F /  0.4 °C 29.93in /  1013.4hPa SSW 1.0mph /  1.6km/h 6.0mph /  9.7km/h 71% 0.00in /  0mm
02:15 41.4 °F /  5.2 °C 33.1 °F /  0.6 °C 29.93in /  1013.4hPa Calm   5.0mph /  8km/h 72% 0.00in /  0mm
02:20 41.4 °F /  5.2 °C 33.1 °F /  0.6 °C 29.93in /  1013.4hPa SSW 2.0mph /  3.2km/h 6.0mph /  9.7km/h 72% 0.00in /  0mm
02:25 41.3 °F /  5.2 °C 33.0 °F /  0.6 °C 29.92in /  1013.1hPa SSW 4.0mph /  6.4km/h 7.0mph /  11.3km/h 72% 0.00in /  0mm
02:30 41.4 °F /  5.2 °C 32.7 °F /  0.4 °C 29.92in /  1013.1hPa SW 2.0mph /  3.2km/h 7.0mph /  11.3km/h 71% 0.00in /  0mm
02:35 41.5 °F /  5.3 °C 32.5 °F /  0.3 °C 29.92in /  1013.1hPa SW 1.0mph /  1.6km/h 5.0mph /  8km/h 70% 0.00in /  0mm
02:40 41.6 °F /  5.3 °C 32.2 °F /  0.1 °C 29.92in /  1013.1hPa SW 3.0mph /  4.8km/h 6.0mph /  9.7km/h 69% 0.00in /  0mm
02:45 41.9 °F /  5.5 °C 31.4 °F /  -0.3 °C 29.91in /  1012.8hPa SSW 6.0mph /  9.7km/h 9.0mph /  14.5km/h 66% 0.00in /  0mm
02:50 42.3 °F /  5.7 °C 31.4 °F /  -0.3 °C 29.91in /  1012.8hPa SSW 3.0mph /  4.8km/h 9.0mph /  14.5km/h 65% 0.00in /  0mm
03:00 42.5 °F /  5.8 °C 31.2 °F /  -0.4 °C 29.91in /  1012.8hPa SSW 2.0mph /  3.2km/h 8.0mph /  12.9km/h 64% 0.00in /  0mm
03:05 42.5 °F /  5.8 °C 31.2 °F /  -0.4 °C 29.91in /  1012.8hPa Calm   7.0mph /  11.3km/h 64% 0.00in /  0mm
03:10 42.4 °F /  5.8 °C 31.5 °F /  -0.3 °C 29.90in /  1012.4hPa SSW 1.0mph /  1.6km/h 6.0mph /  9.7km/h 65% 0.00in /  0mm
03:14 42.5 °F /  5.8 °C 31.6 °F /  -0.2 °C 29.90in /  1012.4hPa SSW 3.0mph /  4.8km/h 7.0mph /  11.3km/h 65% 0.00in /  0mm
03:20 42.7 °F /  5.9 °C 31.8 °F /  -0.1 °C 29.90in /  1012.4hPa Calm   7.0mph /  11.3km/h 65% 0.00in /  0mm
03:30 43.1 °F /  6.2 °C 32.1 °F /  0.1 °C 29.90in /  1012.4hPa SSW 3.0mph /  4.8km/h 6.0mph /  9.7km/h 65% 0.00in /  0mm
03:34 43.3 °F /  6.3 °C 31.9 °F /  -0.1 °C 29.89in /  1012.1hPa South 2.0mph /  3.2km/h 8.0mph /  12.9km/h 64% 0.00in /  0mm
03:40 43.4 °F /  6.3 °C 32.4 °F /  0.2 °C 29.89in /  1012.1hPa SSW 2.0mph /  3.2km/h 8.0mph /  12.9km/h 65% 0.00in /  0mm
03:45 43.7 °F /  6.5 °C 32.3 °F /  0.2 °C 29.88in /  1011.7hPa SSW 4.0mph /  6.4km/h 7.0mph /  11.3km/h 64% 0.00in /  0mm
03:50 43.8 °F /  6.6 °C 32.4 °F /  0.2 °C 29.88in /  1011.7hPa SSW 3.0mph /  4.8km/h 6.0mph /  9.7km/h 64% 0.00in /  0mm
03:54 43.8 °F /  6.6 °C 32.8 °F /  0.4 °C 29.87in /  1011.4hPa South 3.0mph /  4.8km/h 7.0mph /  11.3km/h 65% 0.00in /  0mm
03:59 43.8 °F /  6.6 °C 32.8 °F /  0.4 °C 29.87in /  1011.4hPa Calm   7.0mph /  11.3km/h 65% 0.00in /  0mm
04:05 43.6 °F /  6.4 °C 33.0 °F /  0.6 °C 29.87in /  1011.4hPa SSW 2.0mph /  3.2km/h 7.0mph /  11.3km/h 66% 0.00in /  0mm
04:09 43.4 °F /  6.3 °C 32.8 °F /  0.4 °C 29.87in /  1011.4hPa SSW 3.0mph /  4.8km/h 7.0mph /  11.3km/h 66% 0.00in /  0mm
04:14 43.3 °F /  6.3 °C 33.1 °F /  0.6 °C 29.87in /  1011.4hPa SSW 2.0mph /  3.2km/h 7.0mph /  11.3km/h 67% 0.00in /  0mm
04:20 43.3 °F /  6.3 °C 33.5 °F /  0.8 °C 29.86in /  1011.1hPa SSW 3.0mph /  4.8km/h 7.0mph /  11.3km/h 68% 0.00in /  0mm
04:30 43.7 °F /  6.5 °C 33.8 °F /  1 °C 29.86in /  1011.1hPa South 3.0mph /  4.8km/h 9.0mph /  14.5km/h 68% 0.00in /  0mm
04:35 44.0 °F /  6.7 °C 34.1 °F /  1.2 °C 29.86in /  1011.1hPa SSW 6.0mph /  9.7km/h 11.0mph /  17.7km/h 68% 0.00in /  0mm
04:40 44.3 °F /  6.8 °C 34.0 °F /  1.1 °C 29.86in /  1011.1hPa SSW 5.0mph /  8km/h 11.0mph /  17.7km/h 67% 0.00in /  0mm
04:50 44.3 °F /  6.8 °C 34.4 °F /  1.3 °C 29.85in /  1010.7hPa SSW 6.0mph /  9.7km/h 12.0mph /  19.3km/h 68% 0.00in /  0mm
05:00 44.1 °F /  6.7 °C 34.6 °F /  1.4 °C 29.85in /  1010.7hPa SSW 5.0mph /  8km/h 11.0mph /  17.7km/h 69% 0.00in /  0mm
05:04 44.0 °F /  6.7 °C 34.9 °F /  1.6 °C 29.85in /  1010.7hPa SSW 6.0mph /  9.7km/h 13.0mph /  20.9km/h 70% 0.00in /  0mm
05:09 43.8 °F /  6.6 °C 35.0 °F /  1.7 °C 29.85in /  1010.7hPa SSW 8.0mph /  12.9km/h 13.0mph /  20.9km/h 71% 0.00in /  0mm
05:15 43.7 °F /  6.5 °C 35.3 °F /  1.8 °C 29.85in /  1010.7hPa SSW 11.0mph /  17.7km/h 17.0mph /  27.4km/h 72% 0.00in /  0mm
05:19 43.6 °F /  6.4 °C 35.2 °F /  1.8 °C 29.85in /  1010.7hPa SSW 6.0mph /  9.7km/h 17.0mph /  27.4km/h 72% 0.00in /  0mm
05:24 43.6 °F /  6.4 °C 35.5 °F /  1.9 °C 29.85in /  1010.7hPa SSW 8.0mph /  12.9km/h 15.0mph /  24.1km/h 73% 0.00in /  0mm
05:29 43.6 °F /  6.4 °C 35.5 °F /  1.9 °C 29.85in /  1010.7hPa SSW 7.0mph /  11.3km/h 15.0mph /  24.1km/h 73% 0.00in /  0mm
05:34 43.6 °F /  6.4 °C 35.9 °F /  2.2 °C 29.84in /  1010.4hPa SSW 8.0mph /  12.9km/h 15.0mph /  24.1km/h 74% 0.00in /  0mm
05:40 43.5 °F /  6.4 °C 35.8 °F /  2.1 °C 29.84in /  1010.4hPa SSW 6.0mph /  9.7km/h 15.0mph /  24.1km/h 74% 0.00in /  0mm
05:44 43.4 °F /  6.3 °C 35.7 °F /  2.1 °C 29.84in /  1010.4hPa SSW 5.0mph /  8km/h 11.0mph /  17.7km/h 74% 0.00in /  0mm
05:50 43.3 °F /  6.3 °C 35.6 °F /  2 °C 29.84in /  1010.4hPa SSW 6.0mph /  9.7km/h 13.0mph /  20.9km/h 74% 0.00in /  0mm
05:55 43.2 °F /  6.2 °C 35.8 °F /  2.1 °C 29.84in /  1010.4hPa SSW 7.0mph /  11.3km/h 13.0mph /  20.9km/h 75% 0.00in /  0mm
06:04 43.1 °F /  6.2 °C 35.7 °F /  2.1 °C 29.84in /  1010.4hPa SSW 8.0mph /  12.9km/h 13.0mph /  20.9km/h 75% 0.00in /  0mm
06:10 43.0 °F /  6.1 °C 36.0 °F /  2.2 °C 29.84in /  1010.4hPa SSW 6.0mph /  9.7km/h 16.0mph /  25.7km/h 76% 0.00in /  0mm
06:14 43.0 °F /  6.1 °C 36.0 °F /  2.2 °C 29.84in /  1010.4hPa SSW 9.0mph /  14.5km/h 16.0mph /  25.7km/h 76% 0.00in /  0mm
06:20 42.9 °F /  6.1 °C 36.2 °F /  2.3 °C 29.84in /  1010.4hPa SSW 6.0mph /  9.7km/h 15.0mph /  24.1km/h 77% 0.00in /  0mm
06:24 42.9 °F /  6.1 °C 36.2 °F /  2.3 °C 29.84in /  1010.4hPa SSW 8.0mph /  12.9km/h 15.0mph /  24.1km/h 77% 0.00in /  0mm
06:30 42.8 °F /  6 °C 36.4 °F /  2.4 °C 29.84in /  1010.4hPa SSW 6.0mph /  9.7km/h 13.0mph /  20.9km/h 78% 0.00in /  0mm
06:39 42.4 °F /  5.8 °C 36.7 °F /  2.6 °C 29.84in /  1010.4hPa SSW 8.0mph /  12.9km/h 17.0mph /  27.4km/h 80% 0.00in /  0mm
06:45 42.2 °F /  5.7 °C 36.5 °F /  2.5 °C 29.84in /  1010.4hPa SSW 8.0mph /  12.9km/h 17.0mph /  27.4km/h 80% 0.00in /  0mm
06:49 42.0 °F /  5.6 °C 36.6 °F /  2.6 °C 29.84in /  1010.4hPa SW 10.0mph /  16.1km/h 17.0mph /  27.4km/h 81% 0.00in /  0mm
06:55 41.9 °F /  5.5 °C 36.5 °F /  2.5 °C 29.85in /  1010.7hPa SSW 6.0mph /  9.7km/h 17.0mph /  27.4km/h 81% 0.00in /  0mm
06:59 41.9 °F /  5.5 °C 36.8 °F /  2.7 °C 29.85in /  1010.7hPa SW 6.0mph /  9.7km/h 18.0mph /  29km/h 82% 0.00in /  0mm
07:04 42.0 °F /  5.6 °C 36.9 °F /  2.7 °C 29.85in /  1010.7hPa SW 9.0mph /  14.5km/h 18.0mph /  29km/h 82% 0.00in /  0mm
07:10 42.0 °F /  5.6 °C 36.9 °F /  2.7 °C 29.85in /  1010.7hPa SW 6.0mph /  9.7km/h 16.0mph /  25.7km/h 82% 0.00in /  0mm
07:14 42.0 °F /  5.6 °C 36.9 °F /  2.7 °C 29.85in /  1010.7hPa SW 7.0mph /  11.3km/h 15.0mph /  24.1km/h 82% 0.00in /  0mm
07:19 42.0 °F /  5.6 °C 36.9 °F /  2.7 °C 29.85in /  1010.7hPa SW 7.0mph /  11.3km/h 15.0mph /  24.1km/h 82% 0.00in /  0mm
07:24 42.0 °F /  5.6 °C 36.9 °F /  2.7 °C 29.85in /  1010.7hPa SW 7.0mph /  11.3km/h 14.0mph /  22.5km/h 82% 0.00in /  0mm
07:29 42.0 °F /  5.6 °C 36.9 °F /  2.7 °C 29.84in /  1010.4hPa SW 8.0mph /  12.9km/h 16.0mph /  25.7km/h 82% 0.00in /  0mm
07:34 41.9 °F /  5.5 °C 37.1 °F /  2.8 °C 29.84in /  1010.4hPa SSW 7.0mph /  11.3km/h 16.0mph /  25.7km/h 83% 0.00in /  0mm
07:39 41.8 °F /  5.4 °C 37.0 °F /  2.8 °C 29.84in /  1010.4hPa SSW 7.0mph /  11.3km/h 13.0mph /  20.9km/h 83% 0.00in /  0mm
07:45 41.7 °F /  5.4 °C 37.2 °F /  2.9 °C 29.84in /  1010.4hPa SSW 7.0mph /  11.3km/h 13.0mph /  20.9km/h 84% 0.00in /  0mm
07:55 41.6 °F /  5.3 °C 37.7 °F /  3.2 °C 29.85in /  1010.7hPa SSW 6.0mph /  9.7km/h 16.0mph /  25.7km/h 86% 0.00in /  0mm
08:00 41.6 °F /  5.3 °C 37.7 °F /  3.2 °C 29.85in /  1010.7hPa SW 7.0mph /  11.3km/h 13.0mph /  20.9km/h 86% 0.00in /  0mm
08:09 41.6 °F /  5.3 °C 38.0 °F /  3.3 °C 29.85in /  1010.7hPa SW 8.0mph /  12.9km/h 13.0mph /  20.9km/h 87% 0.01in /  0.3mm
08:14 41.6 °F /  5.3 °C 38.0 °F /  3.3 °C 29.85in /  1010.7hPa SSW 4.0mph /  6.4km/h 12.0mph /  19.3km/h 87% 0.01in /  0.3mm
08:19 41.5 °F /  5.3 °C 37.9 °F /  3.3 °C 29.85in /  1010.7hPa SSW 7.0mph /  11.3km/h 12.0mph /  19.3km/h 87% 0.01in /  0.3mm
08:24 41.5 °F /  5.3 °C 37.9 °F /  3.3 °C 29.85in /  1010.7hPa SSW 5.0mph /  8km/h 13.0mph /  20.9km/h 87% 0.02in /  0.5mm
08:29 41.5 °F /  5.3 °C 38.2 °F /  3.4 °C 29.86in /  1011.1hPa SSW 8.0mph /  12.9km/h 14.0mph /  22.5km/h 88% 0.02in /  0.5mm
08:34 41.4 °F /  5.2 °C 38.1 °F /  3.4 °C 29.86in /  1011.1hPa SSW 5.0mph /  8km/h 14.0mph /  22.5km/h 88% 0.02in /  0.5mm
08:39 41.4 °F /  5.2 °C 38.1 °F /  3.4 °C 29.86in /  1011.1hPa SSW 7.0mph /  11.3km/h 14.0mph /  22.5km/h 88% 0.02in /  0.5mm
08:44 41.4 °F /  5.2 °C 38.4 °F /  3.6 °C 29.86in /  1011.1hPa SSW 3.0mph /  4.8km/h 14.0mph /  22.5km/h 89% 0.02in /  0.5mm
08:50 41.5 °F /  5.3 °C 38.5 °F /  3.6 °C 29.86in /  1011.1hPa SW 4.0mph /  6.4km/h 14.0mph /  22.5km/h 89% 0.02in /  0.5mm
08:54 41.4 °F /  5.2 °C 38.4 °F /  3.6 °C 29.86in /  1011.1hPa WSW 4.0mph /  6.4km/h 10.0mph /  16.1km/h 89% 0.02in /  0.5mm
09:00 41.3 °F /  5.2 °C 38.3 °F /  3.5 °C 29.86in /  1011.1hPa SSW 7.0mph /  11.3km/h 13.0mph /  20.9km/h 89% 0.03in /  0.8mm
09:09 41.4 °F /  5.2 °C 38.7 °F /  3.7 °C 29.85in /  1010.7hPa SW 5.0mph /  8km/h 12.0mph /  19.3km/h 90% 0.03in /  0.8mm
09:14 41.4 °F /  5.2 °C 38.7 °F /  3.7 °C 29.85in /  1010.7hPa SSW 6.0mph /  9.7km/h 16.0mph /  25.7km/h 90% 0.03in /  0.8mm
09:19 41.5 °F /  5.3 °C 38.8 °F /  3.8 °C 29.85in /  1010.7hPa SSW 7.0mph /  11.3km/h 16.0mph /  25.7km/h 90% 0.03in /  0.8mm
09:24 41.5 °F /  5.3 °C 38.8 °F /  3.8 °C 29.84in /  1010.4hPa SW 8.0mph /  12.9km/h 19.0mph /  30.6km/h 90% 0.03in /  0.8mm
09:29 41.4 °F /  5.2 °C 38.7 °F /  3.7 °C 29.85in /  1010.7hPa SSW 10.0mph /  16.1km/h 19.0mph /  30.6km/h 90% 0.03in /  0.8mm
09:35 41.4 °F /  5.2 °C 38.7 °F /  3.7 °C 29.84in /  1010.4hPa SSW 6.0mph /  9.7km/h 18.0mph /  29km/h 90% 0.03in /  0.8mm
09:40 41.4 °F /  5.2 °C 38.7 °F /  3.7 °C 29.84in /  1010.4hPa SSW 8.0mph /  12.9km/h 19.0mph /  30.6km/h 90% 0.03in /  0.8mm
09:44 41.5 °F /  5.3 °C 38.8 °F /  3.8 °C 29.84in /  1010.4hPa SSW 7.0mph /  11.3km/h 19.0mph /  30.6km/h 90% 0.03in /  0.8mm
09:49 41.6 °F /  5.3 °C 38.9 °F /  3.8 °C 29.84in /  1010.4hPa SSW 5.0mph /  8km/h 16.0mph /  25.7km/h 90% 0.03in /  0.8mm
09:54 41.7 °F /  5.4 °C 39.0 °F /  3.9 °C 29.84in /  1010.4hPa SSW 4.0mph /  6.4km/h 15.0mph /  24.1km/h 90% 0.03in /  0.8mm
09:59 41.8 °F /  5.4 °C 39.4 °F /  4.1 °C 29.84in /  1010.4hPa SW 4.0mph /  6.4km/h 14.0mph /  22.5km/h 91% 0.03in /  0.8mm
10:04 41.9 °F /  5.5 °C 39.5 °F /  4.2 °C 29.83in /  1010hPa SW 7.0mph /  11.3km/h 16.0mph /  25.7km/h 91% 0.03in /  0.8mm
10:09 42.0 °F /  5.6 °C 39.6 °F /  4.2 °C 29.83in /  1010hPa SW 9.0mph /  14.5km/h 16.0mph /  25.7km/h 91% 0.03in /  0.8mm
10:14 42.2 °F /  5.7 °C 39.8 °F /  4.3 °C 29.83in /  1010hPa SSW 7.0mph /  11.3km/h 15.0mph /  24.1km/h 91% 0.03in /  0.8mm
10:19 42.2 °F /  5.7 °C 39.5 °F /  4.2 °C 29.83in /  1010hPa SSW 8.0mph /  12.9km/h 17.0mph /  27.4km/h 90% 0.03in /  0.8mm
10:24 42.2 °F /  5.7 °C 39.5 °F /  4.2 °C 29.83in /  1010hPa SSW 8.0mph /  12.9km/h 17.0mph /  27.4km/h 90% 0.03in /  0.8mm
10:30 42.3 °F /  5.7 °C 39.6 °F /  4.2 °C 29.83in /  1010hPa SSW 9.0mph /  14.5km/h 16.0mph /  25.7km/h 90% 0.03in /  0.8mm
10:39 42.3 °F /  5.7 °C 39.6 °F /  4.2 °C 29.84in /  1010.4hPa SW 5.0mph /  8km/h 15.0mph /  24.1km/h 90% 0.03in /  0.8mm
10:45 42.2 °F /  5.7 °C 39.2 °F /  4 °C 29.84in /  1010.4hPa SW 9.0mph /  14.5km/h 15.0mph /  24.1km/h 89% 0.03in /  0.8mm
10:50 42.2 °F /  5.7 °C 39.2 °F /  4 °C 29.84in /  1010.4hPa SW 8.0mph /  12.9km/h 15.0mph /  24.1km/h 89% 0.03in /  0.8mm
10:55 42.0 °F /  5.6 °C 39.0 °F /  3.9 °C 29.84in /  1010.4hPa SW 11.0mph /  17.7km/h 17.0mph /  27.4km/h 89% 0.03in /  0.8mm
11:04 42.0 °F /  5.6 °C 39.0 °F /  3.9 °C 29.84in /  1010.4hPa SSW 9.0mph /  14.5km/h 15.0mph /  24.1km/h 89% 0.03in /  0.8mm
11:09 42.2 °F /  5.7 °C 39.2 °F /  4 °C 29.83in /  1010hPa SSW 10.0mph /  16.1km/h 18.0mph /  29km/h 89% 0.03in /  0.8mm
11:14 42.3 °F /  5.7 °C 39.3 °F /  4.1 °C 29.83in /  1010hPa SSW 7.0mph /  11.3km/h 18.0mph /  29km/h 89% 0.03in /  0.8mm
11:19 42.3 °F /  5.7 °C 39.3 °F /  4.1 °C 29.82in /  1009.7hPa SSW 7.0mph /  11.3km/h 17.0mph /  27.4km/h 89% 0.03in /  0.8mm
11:24 42.4 °F /  5.8 °C 39.4 °F /  4.1 °C 29.82in /  1009.7hPa SSW 6.0mph /  9.7km/h 17.0mph /  27.4km/h 89% 0.03in /  0.8mm
11:30 42.4 °F /  5.8 °C 39.7 °F /  4.3 °C 29.82in /  1009.7hPa SW 8.0mph /  12.9km/h 15.0mph /  24.1km/h 90% 0.03in /  0.8mm
11:35 42.2 °F /  5.7 °C 39.5 °F /  4.2 °C 29.82in /  1009.7hPa SSW 9.0mph /  14.5km/h 16.0mph /  25.7km/h 90% 0.03in /  0.8mm
11:40 42.0 °F /  5.6 °C 39.3 °F /  4.1 °C 29.82in /  1009.7hPa SSW 8.0mph /  12.9km/h 16.0mph /  25.7km/h 90% 0.03in /  0.8mm
11:44 41.9 °F /  5.5 °C 39.2 °F /  4 °C 29.82in /  1009.7hPa SW 9.0mph /  14.5km/h 16.0mph /  25.7km/h 90% 0.03in /  0.8mm
11:50 41.9 °F /  5.5 °C 38.9 °F /  3.8 °C 29.81in /  1009.4hPa SSW 9.0mph /  14.5km/h 18.0mph /  29km/h 89% 0.03in /  0.8mm
11:55 42.0 °F /  5.6 °C 39.3 °F /  4.1 °C 29.81in /  1009.4hPa SSW 7.0mph /  11.3km/h 18.0mph /  29km/h 90% 0.03in /  0.8mm
12:05 41.9 °F /  5.5 °C 38.9 °F /  3.8 °C 29.81in /  1009.4hPa SSW 6.0mph /  9.7km/h 12.0mph /  19.3km/h 89% 0.03in /  0.8mm
12:09 42.0 °F /  5.6 °C 39.0 °F /  3.9 °C 29.81in /  1009.4hPa SSW 10.0mph /  16.1km/h 15.0mph /  24.1km/h 89% 0.03in /  0.8mm
12:14 42.1 °F /  5.6 °C 39.1 °F /  3.9 °C 29.81in /  1009.4hPa SSW 9.0mph /  14.5km/h 16.0mph /  25.7km/h 89% 0.03in /  0.8mm
12:19 42.3 °F /  5.7 °C 39.3 °F /  4.1 °C 29.81in /  1009.4hPa SSW 6.0mph /  9.7km/h 16.0mph /  25.7km/h 89% 0.03in /  0.8mm
12:25 42.6 °F /  5.9 °C 39.3 °F /  4.1 °C 29.81in /  1009.4hPa SSW 7.0mph /  11.3km/h 15.0mph /  24.1km/h 88% 0.03in /  0.8mm
12:30 42.7 °F /  5.9 °C 39.4 °F /  4.1 °C 29.81in /  1009.4hPa SSW 6.0mph /  9.7km/h 15.0mph /  24.1km/h 88% 0.03in /  0.8mm
12:34 42.8 °F /  6 °C 39.2 °F /  4 °C 29.81in /  1009.4hPa SSW 5.0mph /  8km/h 19.0mph /  30.6km/h 87% 0.03in /  0.8mm
12:40 42.7 °F /  5.9 °C 39.1 °F /  3.9 °C 29.81in /  1009.4hPa SSW 8.0mph /  12.9km/h 19.0mph /  30.6km/h 87% 0.03in /  0.8mm
12:45 42.8 °F /  6 °C 38.9 °F /  3.8 °C 29.81in /  1009.4hPa SSW 8.0mph /  12.9km/h 16.0mph /  25.7km/h 86% 0.03in /  0.8mm
12:50 42.8 °F /  6 °C 38.9 °F /  3.8 °C 29.80in /  1009hPa SSW 7.0mph /  11.3km/h 16.0mph /  25.7km/h 86% 0.03in /  0.8mm
13:00 43.1 °F /  6.2 °C 39.2 °F /  4 °C 29.80in /  1009hPa SSW 4.0mph /  6.4km/h 14.0mph /  22.5km/h 86% 0.03in /  0.8mm
13:05 43.4 °F /  6.3 °C 39.5 °F /  4.2 °C 29.79in /  1008.7hPa SSW 6.0mph /  9.7km/h 16.0mph /  25.7km/h 86% 0.03in /  0.8mm
13:15 43.4 °F /  6.3 °C 39.2 °F /  4 °C 29.79in /  1008.7hPa SSW 5.0mph /  8km/h 22.0mph /  35.4km/h 85% 0.03in /  0.8mm
13:19 43.3 °F /  6.3 °C 38.8 °F /  3.8 °C 29.79in /  1008.7hPa SSW 8.0mph /  12.9km/h 20.0mph /  32.2km/h 84% 0.03in /  0.8mm
13:24 43.4 °F /  6.3 °C 39.2 °F /  4 °C 29.79in /  1008.7hPa SSW 5.0mph /  8km/h 20.0mph /  32.2km/h 85% 0.03in /  0.8mm
13:29 43.4 °F /  6.3 °C 38.9 °F /  3.8 °C 29.79in /  1008.7hPa SSW 6.0mph /  9.7km/h 13.0mph /  20.9km/h 84% 0.03in /  0.8mm
13:35 43.5 °F /  6.4 °C 39.0 °F /  3.9 °C 29.79in /  1008.7hPa SSW 9.0mph /  14.5km/h 18.0mph /  29km/h 84% 0.03in /  0.8mm
13:40 43.5 °F /  6.4 °C 39.0 °F /  3.9 °C 29.78in /  1008.4hPa SSW 8.0mph /  12.9km/h 18.0mph /  29km/h 84% 0.03in /  0.8mm
13:49 43.7 °F /  6.5 °C 38.9 °F /  3.8 °C 29.78in /  1008.4hPa SSW 8.0mph /  12.9km/h 15.0mph /  24.1km/h 83% 0.03in /  0.8mm
13:54 43.7 °F /  6.5 °C 38.9 °F /  3.8 °C 29.77in /  1008hPa SSW 9.0mph /  14.5km/h 16.0mph /  25.7km/h 83% 0.03in /  0.8mm
13:59 43.9 °F /  6.6 °C 39.1 °F /  3.9 °C 29.77in /  1008hPa SSW 5.0mph /  8km/h 16.0mph /  25.7km/h 83% 0.03in /  0.8mm
14:04 43.9 °F /  6.6 °C 39.1 °F /  3.9 °C 29.77in /  1008hPa South 6.0mph /  9.7km/h 14.0mph /  22.5km/h 83% 0.03in /  0.8mm
14:09 43.9 °F /  6.6 °C 38.8 °F /  3.8 °C 29.77in /  1008hPa SSW 8.0mph /  12.9km/h 16.0mph /  25.7km/h 82% 0.03in /  0.8mm
14:14 43.8 °F /  6.6 °C 38.7 °F /  3.7 °C 29.77in /  1008hPa SSW 7.0mph /  11.3km/h 16.0mph /  25.7km/h 82% 0.03in /  0.8mm
14:20 43.9 °F /  6.6 °C 39.1 °F /  3.9 °C 29.77in /  1008hPa SSW 5.0mph /  8km/h 11.0mph /  17.7km/h 83% 0.03in /  0.8mm
14:24 43.9 °F /  6.6 °C 39.1 °F /  3.9 °C 29.76in /  1007.7hPa SSW 6.0mph /  9.7km/h 14.0mph /  22.5km/h 83% 0.03in /  0.8mm
14:29 44.1 °F /  6.7 °C 39.3 °F /  4.1 °C 29.76in /  1007.7hPa SSW 5.0mph /  8km/h 14.0mph /  22.5km/h 83% 0.03in /  0.8mm
14:34 44.1 °F /  6.7 °C 39.0 °F /  3.9 °C 29.76in /  1007.7hPa SSW 8.0mph /  12.9km/h 13.0mph /  20.9km/h 82% 0.03in /  0.8mm
14:40 44.1 °F /  6.7 °C 39.0 °F /  3.9 °C 29.76in /  1007.7hPa SSW 7.0mph /  11.3km/h 13.0mph /  20.9km/h 82% 0.03in /  0.8mm
14:45 44.0 °F /  6.7 °C 38.9 °F /  3.8 °C 29.76in /  1007.7hPa SSW 6.0mph /  9.7km/h 14.0mph /  22.5km/h 82% 0.03in /  0.8mm
14:54 44.3 °F /  6.8 °C 39.2 °F /  4 °C 29.75in /  1007.3hPa SSW 6.0mph /  9.7km/h 14.0mph /  22.5km/h 82% 0.03in /  0.8mm
14:59 44.3 °F /  6.8 °C 39.2 °F /  4 °C 29.76in /  1007.7hPa SSW 7.0mph /  11.3km/h 14.0mph /  22.5km/h 82% 0.03in /  0.8mm
15:05 44.6 °F /  7 °C 39.8 °F /  4.3 °C 29.75in /  1007.3hPa SSW 4.0mph /  6.4km/h 13.0mph /  20.9km/h 83% 0.03in /  0.8mm
15:09 44.6 °F /  7 °C 39.4 °F /  4.1 °C 29.75in /  1007.3hPa SW 4.0mph /  6.4km/h 11.0mph /  17.7km/h 82% 0.03in /  0.8mm
15:14 44.5 °F /  6.9 °C 39.4 °F /  4.1 °C 29.75in /  1007.3hPa SW 7.0mph /  11.3km/h 12.0mph /  19.3km/h 82% 0.03in /  0.8mm
15:19 44.4 °F /  6.9 °C 39.3 °F /  4.1 °C 29.75in /  1007.3hPa SSW 6.0mph /  9.7km/h 12.0mph /  19.3km/h 82% 0.03in /  0.8mm
15:25 44.4 °F /  6.9 °C 39.6 °F /  4.2 °C 29.75in /  1007.3hPa SSW 6.0mph /  9.7km/h 11.0mph /  17.7km/h 83% 0.03in /  0.8mm
15:30 44.5 °F /  6.9 °C 39.7 °F /  4.3 °C 29.75in /  1007.3hPa SSW 4.0mph /  6.4km/h 10.0mph /  16.1km/h 83% 0.03in /  0.8mm
15:40 44.6 °F /  7 °C 39.4 °F /  4.1 °C 29.75in /  1007.3hPa SSW 4.0mph /  6.4km/h 9.0mph /  14.5km/h 82% 0.03in /  0.8mm
15:45 44.8 °F /  7.1 °C 39.6 °F /  4.2 °C 29.75in /  1007.3hPa SSW 6.0mph /  9.7km/h 9.0mph /  14.5km/h 82% 0.03in /  0.8mm
15:55 45.1 °F /  7.3 °C 39.9 °F /  4.4 °C 29.75in /  1007.3hPa SSW 5.0mph /  8km/h 11.0mph /  17.7km/h 82% 0.03in /  0.8mm
16:00 45.0 °F /  7.2 °C 39.8 °F /  4.3 °C 29.75in /  1007.3hPa SSW 5.0mph /  8km/h 10.0mph /  16.1km/h 82% 0.03in /  0.8mm
16:10 45.0 °F /  7.2 °C 39.8 °F /  4.3 °C 29.74in /  1007hPa SW 5.0mph /  8km/h 12.0mph /  19.3km/h 82% 0.03in /  0.8mm
16:15 45.0 °F /  7.2 °C 39.8 °F /  4.3 °C 29.74in /  1007hPa SSW 6.0mph /  9.7km/h 9.0mph /  14.5km/h 82% 0.03in /  0.8mm
16:24 45.1 °F /  7.3 °C 39.9 °F /  4.4 °C 29.73in /  1006.7hPa SSW 4.0mph /  6.4km/h 12.0mph /  19.3km/h 82% 0.03in /  0.8mm
16:29 45.0 °F /  7.2 °C 39.5 °F /  4.2 °C 29.73in /  1006.7hPa SSW 6.0mph /  9.7km/h 10.0mph /  16.1km/h 81% 0.03in /  0.8mm
16:34 45.0 °F /  7.2 °C 39.8 °F /  4.3 °C 29.74in /  1007hPa SSW 4.0mph /  6.4km/h 11.0mph /  17.7km/h 82% 0.03in /  0.8mm
16:40 45.0 °F /  7.2 °C 39.8 °F /  4.3 °C 29.73in /  1006.7hPa SSW 5.0mph /  8km/h 11.0mph /  17.7km/h 82% 0.03in /  0.8mm
16:45 45.0 °F /  7.2 °C 39.8 °F /  4.3 °C 29.73in /  1006.7hPa SSW 6.0mph /  9.7km/h 10.0mph /  16.1km/h 82% 0.03in /  0.8mm
16:55 45.0 °F /  7.2 °C 39.8 °F /  4.3 °C 29.73in /  1006.7hPa SW 4.0mph /  6.4km/h 12.0mph /  19.3km/h 82% 0.03in /  0.8mm
16:59 45.0 °F /  7.2 °C 39.8 °F /  4.3 °C 29.73in /  1006.7hPa SSW 5.0mph /  8km/h 13.0mph /  20.9km/h 82% 0.03in /  0.8mm
17:04 45.0 °F /  7.2 °C 39.8 °F /  4.3 °C 29.73in /  1006.7hPa SSW 2.0mph /  3.2km/h 13.0mph /  20.9km/h 82% 0.03in /  0.8mm
17:09 45.0 °F /  7.2 °C 39.8 °F /  4.3 °C 29.73in /  1006.7hPa SSW 6.0mph /  9.7km/h 10.0mph /  16.1km/h 82% 0.03in /  0.8mm
17:14 45.0 °F /  7.2 °C 39.8 °F /  4.3 °C 29.73in /  1006.7hPa SSW 4.0mph /  6.4km/h 10.0mph /  16.1km/h 82% 0.03in /  0.8mm
17:20 45.0 °F /  7.2 °C 39.8 °F /  4.3 °C 29.72in /  1006.3hPa SSW 7.0mph /  11.3km/h 12.0mph /  19.3km/h 82% 0.03in /  0.8mm
17:24 45.0 °F /  7.2 °C 39.8 °F /  4.3 °C 29.72in /  1006.3hPa SSW 6.0mph /  9.7km/h 13.0mph /  20.9km/h 82% 0.03in /  0.8mm
17:29 45.0 °F /  7.2 °C 39.8 °F /  4.3 °C 29.72in /  1006.3hPa SSW 4.0mph /  6.4km/h 13.0mph /  20.9km/h 82% 0.03in /  0.8mm
17:34 45.0 °F /  7.2 °C 39.8 °F /  4.3 °C 29.72in /  1006.3hPa SSW 7.0mph /  11.3km/h 11.0mph /  17.7km/h 82% 0.03in /  0.8mm
17:39 44.9 °F /  7.2 °C 39.7 °F /  4.3 °C 29.72in /  1006.3hPa SSW 5.0mph /  8km/h 11.0mph /  17.7km/h 82% 0.03in /  0.8mm
17:45 44.9 °F /  7.2 °C 39.7 °F /  4.3 °C 29.72in /  1006.3hPa South 5.0mph /  8km/h 9.0mph /  14.5km/h 82% 0.03in /  0.8mm
17:54 44.8 °F /  7.1 °C 40.0 °F /  4.4 °C 29.72in /  1006.3hPa SSW 5.0mph /  8km/h 9.0mph /  14.5km/h 83% 0.03in /  0.8mm
17:59 44.7 °F /  7.1 °C 39.9 °F /  4.4 °C 29.73in /  1006.7hPa SW 3.0mph /  4.8km/h 9.0mph /  14.5km/h 83% 0.03in /  0.8mm
18:04 44.8 °F /  7.1 °C 40.0 °F /  4.4 °C 29.72in /  1006.3hPa South 4.0mph /  6.4km/h 9.0mph /  14.5km/h 83% 0.03in /  0.8mm
18:09 44.8 °F /  7.1 °C 40.0 °F /  4.4 °C 29.72in /  1006.3hPa SSW 3.0mph /  4.8km/h 9.0mph /  14.5km/h 83% 0.03in /  0.8mm
18:14 44.8 °F /  7.1 °C 40.0 °F /  4.4 °C 29.72in /  1006.3hPa SSW 6.0mph /  9.7km/h 9.0mph /  14.5km/h 83% 0.03in /  0.8mm
18:19 44.8 °F /  7.1 °C 40.0 °F /  4.4 °C 29.72in /  1006.3hPa SSW 3.0mph /  4.8km/h 10.0mph /  16.1km/h 83% 0.03in /  0.8mm
18:24 44.8 °F /  7.1 °C 40.0 °F /  4.4 °C 29.72in /  1006.3hPa SSW 4.0mph /  6.4km/h 10.0mph /  16.1km/h 83% 0.03in /  0.8mm
18:29 44.8 °F /  7.1 °C 40.0 °F /  4.4 °C 29.72in /  1006.3hPa SSW 2.0mph /  3.2km/h 8.0mph /  12.9km/h 83% 0.03in /  0.8mm
18:34 44.8 °F /  7.1 °C 40.0 °F /  4.4 °C 29.72in /  1006.3hPa SSW 4.0mph /  6.4km/h 7.0mph /  11.3km/h 83% 0.03in /  0.8mm
18:40 44.8 °F /  7.1 °C 40.0 °F /  4.4 °C 29.72in /  1006.3hPa SSW 4.0mph /  6.4km/h 8.0mph /  12.9km/h 83% 0.03in /  0.8mm
18:45 44.7 °F /  7.1 °C 39.9 °F /  4.4 °C 29.72in /  1006.3hPa SSW 1.0mph /  1.6km/h 8.0mph /  12.9km/h 83% 0.03in /  0.8mm
18:54 44.7 °F /  7.1 °C 39.9 °F /  4.4 °C 29.71in /  1006hPa SSW 4.0mph /  6.4km/h 8.0mph /  12.9km/h 83% 0.03in /  0.8mm
19:00 44.7 °F /  7.1 °C 39.9 °F /  4.4 °C 29.72in /  1006.3hPa SSW 3.0mph /  4.8km/h 8.0mph /  12.9km/h 83% 0.03in /  0.8mm
19:04 44.7 °F /  7.1 °C 40.2 °F /  4.6 °C 29.71in /  1006hPa SSW 3.0mph /  4.8km/h 7.0mph /  11.3km/h 84% 0.03in /  0.8mm
19:09 44.6 °F /  7 °C 40.1 °F /  4.5 °C 29.71in /  1006hPa SW 2.0mph /  3.2km/h 7.0mph /  11.3km/h 84% 0.03in /  0.8mm
19:14 44.6 °F /  7 °C 40.1 °F /  4.5 °C 29.70in /  1005.6hPa SW 3.0mph /  4.8km/h 8.0mph /  12.9km/h 84% 0.03in /  0.8mm
19:20 44.5 °F /  6.9 °C 40.0 °F /  4.4 °C 29.70in /  1005.6hPa SW 3.0mph /  4.8km/h 8.0mph /  12.9km/h 84% 0.03in /  0.8mm
19:24 44.5 °F /  6.9 °C 40.0 °F /  4.4 °C 29.71in /  1006hPa SW 4.0mph /  6.4km/h 7.0mph /  11.3km/h 84% 0.03in /  0.8mm
19:29 44.6 °F /  7 °C 40.1 °F /  4.5 °C 29.71in /  1006hPa SSW 3.0mph /  4.8km/h 10.0mph /  16.1km/h 84% 0.03in /  0.8mm
19:34 44.6 °F /  7 °C 40.1 °F /  4.5 °C 29.71in /  1006hPa SW 2.0mph /  3.2km/h 10.0mph /  16.1km/h 84% 0.03in /  0.8mm
19:39 44.5 °F /  6.9 °C 40.0 °F /  4.4 °C 29.71in /  1006hPa SSW 3.0mph /  4.8km/h 8.0mph /  12.9km/h 84% 0.03in /  0.8mm
19:45 44.5 °F /  6.9 °C 40.0 °F /  4.4 °C 29.71in /  1006hPa SW 3.0mph /  4.8km/h 7.0mph /  11.3km/h 84% 0.03in /  0.8mm
19:50 44.6 °F /  7 °C 40.1 °F /  4.5 °C 29.71in /  1006hPa SW 4.0mph /  6.4km/h 8.0mph /  12.9km/h 84% 0.03in /  0.8mm
19:59 44.6 °F /  7 °C 40.1 °F /  4.5 °C 29.71in /  1006hPa SW 3.0mph /  4.8km/h 8.0mph /  12.9km/h 84% 0.03in /  0.8mm
20:04 44.6 °F /  7 °C 40.1 °F /  4.5 °C 29.71in /  1006hPa SW 6.0mph /  9.7km/h 10.0mph /  16.1km/h 84% 0.03in /  0.8mm
20:09 44.6 °F /  7 °C 40.1 °F /  4.5 °C 29.71in /  1006hPa SSW 3.0mph /  4.8km/h 10.0mph /  16.1km/h 84% 0.03in /  0.8mm
20:15 44.6 °F /  7 °C 40.1 °F /  4.5 °C 29.71in /  1006hPa SW 5.0mph /  8km/h 9.0mph /  14.5km/h 84% 0.03in /  0.8mm
20:19 44.6 °F /  7 °C 39.8 °F /  4.3 °C 29.71in /  1006hPa SW 5.0mph /  8km/h 12.0mph /  19.3km/h 83% 0.03in /  0.8mm
20:24 44.6 °F /  7 °C 40.1 °F /  4.5 °C 29.71in /  1006hPa SSW 5.0mph /  8km/h 12.0mph /  19.3km/h 84% 0.03in /  0.8mm
20:30 44.6 °F /  7 °C 40.1 °F /  4.5 °C 29.71in /  1006hPa SSW 5.0mph /  8km/h 10.0mph /  16.1km/h 84% 0.03in /  0.8mm
20:34 44.6 °F /  7 °C 40.1 °F /  4.5 °C 29.71in /  1006hPa SSW 5.0mph /  8km/h 10.0mph /  16.1km/h 84% 0.03in /  0.8mm
20:40 44.6 °F /  7 °C 40.1 °F /  4.5 °C 29.71in /  1006hPa SW 6.0mph /  9.7km/h 10.0mph /  16.1km/h 84% 0.03in /  0.8mm
20:44 44.6 °F /  7 °C 40.1 °F /  4.5 °C 29.71in /  1006hPa SW 5.0mph /  8km/h 10.0mph /  16.1km/h 84% 0.03in /  0.8mm
20:50 44.5 °F /  6.9 °C 40.0 °F /  4.4 °C 29.71in /  1006hPa SSW 3.0mph /  4.8km/h 9.0mph /  14.5km/h 84% 0.03in /  0.8mm
20:59 44.5 °F /  6.9 °C 40.0 °F /  4.4 °C 29.71in /  1006hPa SW 6.0mph /  9.7km/h 9.0mph /  14.5km/h 84% 0.03in /  0.8mm
21:04 44.4 °F /  6.9 °C 39.9 °F /  4.4 °C 29.71in /  1006hPa SSW 3.0mph /  4.8km/h 10.0mph /  16.1km/h 84% 0.03in /  0.8mm
21:09 44.2 °F /  6.8 °C 39.7 °F /  4.3 °C 29.71in /  1006hPa SSW 4.0mph /  6.4km/h 10.0mph /  16.1km/h 84% 0.03in /  0.8mm
21:14 43.8 °F /  6.6 °C 39.3 °F /  4.1 °C 29.71in /  1006hPa SSW 2.0mph /  3.2km/h 7.0mph /  11.3km/h 84% 0.03in /  0.8mm
21:19 43.5 °F /  6.4 °C 39.0 °F /  3.9 °C 29.71in /  1006hPa SSW 4.0mph /  6.4km/h 8.0mph /  12.9km/h 84% 0.03in /  0.8mm
21:24 43.4 °F /  6.3 °C 39.2 °F /  4 °C 29.72in /  1006.3hPa SSW 4.0mph /  6.4km/h 8.0mph /  12.9km/h 85% 0.03in /  0.8mm
21:29 43.5 °F /  6.4 °C 39.3 °F /  4.1 °C 29.72in /  1006.3hPa SW 2.0mph /  3.2km/h 8.0mph /  12.9km/h 85% 0.03in /  0.8mm
21:34 43.6 °F /  6.4 °C 39.7 °F /  4.3 °C 29.72in /  1006.3hPa SSW 2.0mph /  3.2km/h 7.0mph /  11.3km/h 86% 0.03in /  0.8mm
21:39 43.8 °F /  6.6 °C 39.6 °F /  4.2 °C 29.71in /  1006hPa SSW 5.0mph /  8km/h 9.0mph /  14.5km/h 85% 0.03in /  0.8mm
21:44 43.9 °F /  6.6 °C 39.7 °F /  4.3 °C 29.71in /  1006hPa SSW 4.0mph /  6.4km/h 9.0mph /  14.5km/h 85% 0.03in /  0.8mm
21:50 43.7 °F /  6.5 °C 39.5 °F /  4.2 °C 29.70in /  1005.6hPa SSW 5.0mph /  8km/h 8.0mph /  12.9km/h 85% 0.03in /  0.8mm
22:00 43.1 °F /  6.2 °C 38.9 °F /  3.8 °C 29.70in /  1005.6hPa SSW 5.0mph /  8km/h 8.0mph /  12.9km/h 85% 0.03in /  0.8mm
22:05 42.6 °F /  5.9 °C 38.4 °F /  3.6 °C 29.70in /  1005.6hPa SW 5.0mph /  8km/h 8.0mph /  12.9km/h 85% 0.03in /  0.8mm
22:14 41.9 °F /  5.5 °C 38.0 °F /  3.3 °C 29.70in /  1005.6hPa SSW 3.0mph /  4.8km/h 7.0mph /  11.3km/h 86% 0.03in /  0.8mm
22:19 41.9 °F /  5.5 °C 38.3 °F /  3.5 °C 29.70in /  1005.6hPa SSW 4.0mph /  6.4km/h 6.0mph /  9.7km/h 87% 0.03in /  0.8mm
22:25 42.2 °F /  5.7 °C 38.6 °F /  3.7 °C 29.70in /  1005.6hPa South 2.0mph /  3.2km/h 7.0mph /  11.3km/h 87% 0.03in /  0.8mm
22:29 42.4 °F /  5.8 °C 39.1 °F /  3.9 °C 29.70in /  1005.6hPa SW 1.0mph /  1.6km/h 7.0mph /  11.3km/h 88% 0.03in /  0.8mm
22:35 42.7 °F /  5.9 °C 39.4 °F /  4.1 °C 29.70in /  1005.6hPa SW 2.0mph /  3.2km/h 7.0mph /  11.3km/h 88% 0.03in /  0.8mm
22:39 42.9 °F /  6.1 °C 39.6 °F /  4.2 °C 29.70in /  1005.6hPa SSW 4.0mph /  6.4km/h 7.0mph /  11.3km/h 88% 0.03in /  0.8mm
22:44 42.9 °F /  6.1 °C 39.6 °F /  4.2 °C 29.70in /  1005.6hPa SSW 4.0mph /  6.4km/h 6.0mph /  9.7km/h 88% 0.03in /  0.8mm
22:50 43.0 °F /  6.1 °C 39.4 °F /  4.1 °C 29.70in /  1005.6hPa SW 2.0mph /  3.2km/h 7.0mph /  11.3km/h 87% 0.03in /  0.8mm
23:00 43.1 °F /  6.2 °C 39.5 °F /  4.2 °C 29.70in /  1005.6hPa SSW 3.0mph /  4.8km/h 8.0mph /  12.9km/h 87% 0.03in /  0.8mm
23:09 43.4 °F /  6.3 °C 39.8 °F /  4.3 °C 29.69in /  1005.3hPa SSW 5.0mph /  8km/h 9.0mph /  14.5km/h 87% 0.03in /  0.8mm
23:14 43.6 °F /  6.4 °C 40.0 °F /  4.4 °C 29.69in /  1005.3hPa SSW 2.0mph /  3.2km/h 9.0mph /  14.5km/h 87% 0.03in /  0.8mm
23:20 43.5 °F /  6.4 °C 39.9 °F /  4.4 °C 29.69in /  1005.3hPa SSW 2.0mph /  3.2km/h 7.0mph /  11.3km/h 87% 0.03in /  0.8mm
23:29 43.7 °F /  6.5 °C 40.1 °F /  4.5 °C 29.69in /  1005.3hPa SSW 6.0mph /  9.7km/h 11.0mph /  17.7km/h 87% 0.03in /  0.8mm
23:34 43.9 °F /  6.6 °C 40.0 °F /  4.4 °C 29.69in /  1005.3hPa SSW 6.0mph /  9.7km/h 11.0mph /  17.7km/h 86% 0.03in /  0.8mm
23:39 43.9 °F /  6.6 °C 40.0 °F /  4.4 °C 29.69in /  1005.3hPa SSW 5.0mph /  8km/h 10.0mph /  16.1km/h 86% 0.03in /  0.8mm
23:45 43.9 °F /  6.6 °C 40.0 °F /  4.4 °C 29.68in /  1005hPa SSW 5.0mph /  8km/h 8.0mph /  12.9km/h 86% 0.03in /  0.8mm
23:55 43.8 °F /  6.6 °C 39.9 °F /  4.4 °C 29.68in /  1005hPa SSW 4.0mph /  6.4km/h 9.0mph /  14.5km/h 86% 0.03in /  0.8mm
Westford Weather
Compliments of Weather Underground

 
 
Current Radar Loop:

Copyright © WestfordWeather.net 2007-2014. All rights reserved.